Portada
METAR-TAF:

METAR-TAF

Aeropuertos :

Aeropuerto de Chitá-Kadala

Chitá, Rusia

latitud: 52-05N, longitud: 113-29E, altitud: 685 m

Observación

El informe se hizo hace 37 minutos, a las 19:30 UTC
Viento 12 kt del oeste-noroeste
Temperatura -15°C
Humedad 60%
Presión 1023 hPa
Visibilidad 10 km o más

METAR: UIAA 181930Z 30006MPS 9999 NSC M15/M21 Q1023 R29/410160 NOSIG RMK QFE708/0944

Hora: 05:07 (20:07 UTC)

Pronóstico

El informe se hizo hace 3 horas y 7 minutos, a las 17:00 UTC
Pronóstico válido del 18 a las 18 UTC al 19 a las 18 UTC
Viento 10 kt del oeste-noroeste con ráfagas de 19 kt
Visibilidad 10 km o más
Temporalmente
del 18 a las 18 UTC al 19 a las 06 UTC
Viento 6 kt del sur-suroeste con ráfagas de 16 kt

TAF: UIAA 181700Z 1818/1918 29005G10MPS 9999 NSC TEMPO 1818/1906 20003G08MPS

Observaciones y pronósticos meteorológicos de más de 4000 aeropuertos (mensajes METAR y TAF).

Los puntos amarillos y rojos representan las estaciones disponibles.

Ponga el ratón en el punto deseado para ver el nombre de la estación.

Haga clic para ver las observaciones y los pronósticos meteorológicos.

Para cambiar el mapa : haga clic en los botones verdes con una cruz de color negro para hacer un zoom, en el botón verde con un guión para alejar o en las flechas verdes para mapas adyacentes.


METAR-TAF: